Rose, Kansas
Current Conditions -  °F | °C
As of 7:52 PM on Monday 20 Oct 2014 (Local Time) from KCNU Reporting Station
Clear Clear  
Wind Chill: 60°   Ceiling: Unl
Heat Index: 60°   Visibility: 10mi
Dew Point: 50°   Wind: 5mph
Humidity: 69%   Direction: 10°N
Pressure: 30.04"   Gusts: NA
Location:  37.893°N, 95.7469°W
Report Text: KCNU 210052Z AUTO 01004KT 10SM CLR 16/10 A3004 RMK AO2 SLP168 T01560100
Loading
Personal Weather Stations






























Interactive Weather Map
Tropical Storm Tracking
New forecast layout! Learn more

10-Day Weather Forecast

Advertisements
Track Severe Weather on mobile